Latest Coastal Weather Observations for Portland Airport

IDS60701

Issued at 6:15 am CDT Friday 28 November 2014 (issued every 10 minutes, with the page automatically refreshed every 10 minutes)

About coastal observations | Map of coastal stations | Coastal observations for SA | Marine services | Other Formats
Station Details ID: 090171 Name: CASHMORE AIRPORT Lat: -38.31 Lon: 141.47 Height: 80.9 m
Data from the previous 72 hours. | See also: Recent months at Portland Airport
Date/Time
CDT
Temp

°C
Wind Pressure Rain
since 9am
mm
Weather Cloud Vis
km
Sea
Height
m
Swell
Dir
 
Speed
knots
Gust
knots
hPa Trend Height
m
Period
s
Dir
28/06:00am 12.3 ESE 8 12 1023.9 - 0.0 - Cloudy 10 - - - -
28/05:30am 12.3 SE 10 16 1023.7 - 0.0 - Cloudy 10 - - - -
28/05:00am 12.3 ESE 9 14 1023.5 - 0.0 - Cloudy 10 - - - -
28/04:30am 12.3 ESE 8 13 1023.5 - 0.0 - Cloudy 10 - - - -
28/04:00am 12.3 ESE 7 11 1023.3 - 0.0 - Cloudy 10 - - - -
28/03:30am 12.4 ESE 6 10 1023.2 - 0.0 - Cloudy 10 - - - -
28/03:00am 12.5 SE 10 13 1023.3 - 0.0 - Cloudy 10 - - - -
28/02:30am 12.5 SE 9 13 1023.4 - 0.0 - Cloudy 10 - - - -
28/02:00am 12.5 SE 8 11 1023.6 - 0.0 - Cloudy 10 - - - -
28/01:30am 12.4 ESE 8 12 1023.6 - 0.0 - Cloudy 10 - - - -
28/01:00am 12.3 ESE 7 12 1023.7 - 0.0 - Cloudy 10 - - - -
28/12:30am 12.4 ESE 7 11 1024.0 - 0.0 - Cloudy 10 - - - -
28/12:00am 12.4 ESE 9 13 1024.3 - 0.0 - Cloudy 10 - - - -
 
Date/Time
CDT
Temp

°C
Wind Pressure Rain
since 9am
mm
Weather Cloud Vis
km
Sea
Height
m
Swell
Dir
 
Speed
knots
Gust
knots
hPa Trend Height
m
Period
s
Dir
27/11:30pm 12.3 ESE 9 14 1024.2 - 0.0 - Cloudy 10 - - - -
27/11:00pm 12.0 ESE 9 13 1024.0 - 0.0 - Cloudy 10 - - - -
27/10:30pm 11.8 ESE 9 13 1024.2 - 0.0 - Partly cloudy 10 - - - -
27/10:00pm 11.3 ESE 8 12 1024.7 - 0.0 - Partly cloudy 10 - - - -
27/09:30pm 11.1 ESE 7 9 1024.9 - 0.0 - Partly cloudy 10 - - - -
27/09:00pm 11.2 ESE 7 12 1024.8 - 0.0 - Partly cloudy 10 - - - -
27/08:30pm 11.6 SE 8 11 1025.0 - 0.0 - - 10 - - - -
27/08:00pm 12.0 ESE 7 10 1024.7 - 0.0 - - 10 - - - -
27/07:30pm 13.0 ESE 10 15 1024.7 - 0.0 - - 10 - - - -
27/07:00pm 13.5 SE 10 14 1024.8 - 0.0 - Partly cloudy 10 - - - -
27/06:30pm 13.9 ESE 11 18 1024.8 - 0.0 - Partly cloudy 10 - - - -
27/06:00pm 14.6 SE 11 16 1024.9 - 0.0 - Partly cloudy 10 - - - -
27/05:30pm 14.4 SE 13 18 1025.0 - 0.0 - - 10 - - - -
27/05:00pm 14.6 SE 13 19 1025.0 - 0.0 - Partly cloudy 10 - - - -
27/04:30pm 15.3 SE 13 18 1025.2 - 0.0 - Partly cloudy 10 - - - -
27/04:00pm 15.7 SE 13 18 1025.2 - 0.0 - - 10 - - - -
27/03:30pm 15.7 SE 14 19 1025.3 - 0.0 - - 10 - - - -
27/03:00pm 15.9 SE 13 19 1025.5 - 0.0 - - 10 - - - -
27/02:30pm 16.6 SE 12 17 1025.8 - 0.0 - - 10 - - - -
27/02:00pm 16.5 SE 12 17 1025.8 - 0.0 - - 10 - - - -
27/01:30pm 16.2 SE 11 16 1025.9 - 0.0 - Partly cloudy 10 - - - -
27/01:00pm 16.4 SE 11 18 1026.1 - 0.0 - Partly cloudy 10 - - - -
27/12:30pm 15.7 SE 11 16 1026.4 - 0.0 - Partly cloudy 10 - - - -
27/12:00pm 15.8 E 8 12 1026.5 - 0.0 - Partly cloudy 10 - - - -
27/11:30am 15.4 SE 10 17 1026.7 - 0.0 - Mostly cloudy 10 - - - -
27/11:00am 14.5 SE 11 17 1026.9 - 0.0 - Cloudy 10 - - - -
27/10:30am 14.4 SE 10 18 1027.0 - 0.0 - Cloudy 10 - - - -
27/10:00am 14.4 ESE 10 15 1027.0 - 0.0 - Cloudy 10 - - - -
27/09:30am 14.4 SE 9 15 1027.0 - 0.0 - Partly cloudy 10 - - - -
27/09:00am 14.0 ESE 9 15 1027.1 - 0.0 - Partly cloudy 10 - - - -
27/08:30am 14.2 ESE 10 16 1026.8 - 0.4 - Mostly clear 10 - - - -
27/08:00am 13.5 ESE 9 13 1026.9 - 0.4 - Cloudy 10 - - - -
27/07:30am 13.0 SE 8 13 1026.5 - 0.4 - Cloudy 10 - - - -
27/07:00am 12.6 SE 8 11 1026.3 - 0.4 - Cloudy 10 - - - -
27/06:30am 12.2 SE 6 9 1026.2 - 0.4 - Cloudy 10 - - - -
27/06:00am 12.1 SE 6 7 1026.1 - 0.4 - Cloudy 10 - - - -
27/05:30am 12.1 SE 6 10 1025.9 - 0.4 - Cloudy 10 - - - -
27/05:00am 12.1 SE 5 9 1025.5 - 0.4 - Cloudy 10 - - - -
27/04:30am 12.3 SE 7 10 1025.3 - 0.4 - Cloudy 10 - - - -
27/04:00am 11.8 ESE 3 5 1025.0 - 0.4 - Cloudy 10 - - - -
27/03:30am 12.1 SE 6 9 1024.9 - 0.4 - Cloudy 10 - - - -
27/03:00am 11.8 ESE 6 9 1024.8 - 0.4 - Cloudy 10 - - - -
27/02:30am 11.7 SE 4 5 1024.8 - 0.4 - Cloudy 10 - - - -
27/02:00am 12.0 SE 7 11 1024.9 - 0.4 - Cloudy 10 - - - -
27/01:30am 11.6 ESE 5 7 1025.1 - 0.4 - Cloudy 10 - - - -
27/01:00am 11.3 ESE 4 5 1025.3 - 0.4 - Cloudy 10 - - - -
27/12:30am 11.6 SE 5 7 1025.5 - 0.4 - Cloudy 10 - - - -
27/12:00am 11.6 SE 5 8 1025.6 - 0.4 - Partly cloudy 10 - - - -
 
Date/Time
CDT
Temp

°C
Wind Pressure Rain
since 9am
mm
Weather Cloud Vis
km
Sea
Height
m
Swell
Dir
 
Speed
knots
Gust
knots
hPa Trend Height
m
Period
s
Dir
26/11:30pm 11.7 SE 7 12 1025.8 - 0.4 - Mostly cloudy 10 - - - -
26/11:00pm 12.2 SE 7 9 1025.6 - 0.4 - Cloudy 10 - - - -
26/10:30pm 12.3 SE 6 9 1025.6 - 0.4 - Cloudy 10 - - - -
26/10:00pm 12.1 SE 6 9 1025.6 - 0.4 - Cloudy 10 - - - -
26/09:30pm 11.5 SSE 5 7 1025.4 - 0.4 - Partly cloudy 10 - - - -
26/09:00pm 12.0 SSE 5 6 1025.0 - 0.4 - Partly cloudy 10 - - - -
26/08:30pm 12.4 SSE 4 6 1024.9 - 0.4 - Mostly cloudy 10 - - - -
26/08:00pm 12.8 SSE 9 13 1024.8 - 0.4 - Cloudy 10 - - - -
26/07:30pm 13.3 S 8 12 1024.7 - 0.4 - Cloudy 10 - - - -
26/07:00pm 13.8 SSE 8 12 1024.5 - 0.4 - Partly cloudy 10 - - - -
26/06:30pm 13.8 SSE 7 10 1024.3 - 0.4 - Partly cloudy 10 - - - -
26/06:00pm 14.5 S 8 12 1024.0 - 0.4 - Partly cloudy 10 - - - -
26/05:30pm 14.6 S 9 14 1023.8 - 0.4 - Cloudy 10 - - - -
26/05:00pm 14.9 S 8 13 1023.8 - 0.4 - Partly cloudy 10 - - - -
26/04:30pm 15.5 S 8 13 1023.7 - 0.4 - Partly cloudy 10 - - - -
26/04:00pm 15.6 S 10 16 1023.6 - 0.4 - Partly cloudy 10 - - - -
26/03:30pm 15.4 S 10 15 1023.7 - 0.2 - Partly cloudy 10 - - - -
26/03:00pm 16.0 S 9 13 1023.5 - 0.2 - Partly cloudy 10 - - - -
26/02:30pm 14.5 S 9 15 1023.5 - 0.2 - Cloudy 10 - - - -
26/02:00pm 14.5 S 11 15 1023.6 - 0.2 - Partly cloudy 10 - - - -
26/01:59pm 14.7 S 11 15 1023.6 - 0.2 - Partly cloudy 10 - - - -
26/01:32pm 14.5 S 8 12 1023.5 - 0.2 - Partly cloudy 6 - - - -
26/01:31pm 14.4 S 8 11 1023.5 - 0.2 - Partly cloudy 7 - - - -
26/01:30pm 14.6 S 7 10 1023.5 - 0.2 - Partly cloudy 7 - - - -
26/01:15pm 14.7 SSW 10 15 1023.4 - 0.2 - Partly cloudy 6 - - - -
26/01:00pm 15.6 WSW 12 17 1023.3 - 0.2 - Partly cloudy 10 - - - -
26/12:42pm 15.6 WSW 10 15 1023.3 - 0.2 - Partly cloudy 10 - - - -
26/12:30pm 15.2 WSW 11 16 1023.4 - 0.2 - Partly cloudy 5 - - - -
26/12:21pm 15.2 WSW 14 19 1023.4 - 0.0 - Partly cloudy 6 - - - -
26/12:18pm 15.9 WSW 14 19 1023.3 - 0.0 - Partly cloudy 10 - - - -
26/12:11pm 16.9 W 13 18 1023.3 - 0.0 - Partly cloudy 10 - - - -
26/12:00pm 15.9 W 14 18 1023.3 - 0.0 - Partly cloudy 10 - - - -
26/11:56am 15.5 W 13 18 1023.3 - 0.0 - Partly cloudy 10 - - - -
26/11:30am 14.6 WSW 13 18 1023.3 - 0.0 - Cloudy 3 - - - -
26/11:25am 14.9 WSW 14 18 1023.2 - 0.0 - Partly cloudy 5 - - - -
26/11:02am 15.8 W 12 17 1023.1 - 0.0 - Partly cloudy 10 - - - -
26/11:00am 15.8 W 12 17 1023.1 - 0.0 - Partly cloudy 10 - - - -
26/10:30am 15.9 W 13 17 1023.0 - 0.0 - Partly cloudy 10 - - - -
26/10:00am 15.8 W 15 20 1022.8 - 0.0 - Partly cloudy 10 - - - -
26/09:30am 15.0 W 14 19 1022.7 - 0.0 - Cloudy 10 - - - -
26/09:00am 15.1 W 13 16 1022.4 - 0.0 - Partly cloudy 10 - - - -
26/08:30am 14.7 W 12 18 1022.1 - 0.0 - Cloudy 10 - - - -
26/08:00am 14.7 W 11 13 1022.0 - 0.0 - Partly cloudy 10 - - - -
26/07:30am 13.6 W 11 14 1021.7 - 0.0 - Partly cloudy 10 - - - -
26/07:00am 13.5 W 10 13 1021.4 - 0.0 - Partly cloudy 10 - - - -
26/06:30am 12.9 W 9 12 1021.3 - 0.0 - Partly cloudy 10 - - - -
26/06:00am 12.6 WSW 9 13 1021.2 - 0.0 - Partly cloudy 10 - - - -
26/05:30am 12.9 WSW 10 14 1020.8 - 0.0 - Cloudy 10 - - - -
26/05:00am 12.8 W 9 13 1020.7 - 0.0 - Cloudy 10 - - - -
26/04:30am 12.9 W 9 13 1020.4 - 0.0 - Partly cloudy 10 - - - -
26/04:00am 12.7 W 8 11 1020.4 - 0.0 - Cloudy 10 - - - -
26/03:30am 12.7 W 12 17 1020.4 - 0.0 - Partly cloudy 10 - - - -
26/03:00am 12.8 WSW 8 13 1020.4 - 0.0 - Cloudy 10 - - - -
26/02:30am 12.8 WSW 9 13 1020.5 - 0.0 - Mostly cloudy 10 - - - -
26/02:00am 12.7 WSW 10 15 1020.8 - 0.0 - Cloudy 10 - - - -
26/01:30am 12.5 WSW 7 12 1021.0 - 0.0 - Partly cloudy 10 - - - -
26/01:00am 12.4 WSW 10 15 1021.3 - 0.0 - Partly cloudy 10 - - - -
26/12:30am 12.8 W 6 9 1021.5 - 0.0 - Partly cloudy 10 - - - -
26/12:00am 12.9 WSW 9 12 1021.7 - 0.0 - Partly cloudy 10 - - - -
 
Date/Time
CDT
Temp

°C
Wind Pressure Rain
since 9am
mm
Weather Cloud Vis
km
Sea
Height
m
Swell
Dir
 
Speed
knots
Gust
knots
hPa Trend Height
m
Period
s
Dir
25/11:30pm 13.0 W 8 10 1021.8 - 0.0 - Cloudy 10 - - - -
25/11:00pm 12.9 WSW 9 13 1021.9 - 0.0 - Cloudy 10 - - - -
25/10:30pm 13.1 WSW 11 16 1022.1 - 0.0 - Cloudy 10 - - - -
25/10:00pm 12.1 WSW 6 8 1022.1 - 0.0 - Partly cloudy 10 - - - -
25/09:30pm 12.2 WSW 8 11 1022.2 - 0.0 - Partly cloudy 10 - - - -
25/09:00pm 12.0 WSW 7 12 1022.0 - 0.0 - Partly cloudy 10 - - - -
25/08:30pm 12.2 WSW 9 14 1022.0 - 0.0 - Mostly cloudy 10 - - - -
25/08:00pm 12.9 WSW 10 14 1021.9 - 0.0 - Partly cloudy 10 - - - -
25/07:30pm 13.0 WSW 11 15 1021.9 - 0.0 - Partly cloudy 10 - - - -
25/07:00pm 14.0 WSW 13 19 1021.5 - 0.0 - Partly cloudy 10 - - - -
25/06:30pm 14.1 W 14 18 1021.2 - 0.0 - Partly cloudy 10 - - - -
25/06:00pm 13.9 WSW 12 19 1021.0 - 0.0 - Partly cloudy 10 - - - -
25/05:30pm 14.1 WSW 13 18 1020.7 - 0.0 - Cloudy 10 - - - -
25/05:00pm 14.8 W 15 21 1020.6 - 0.0 - Partly cloudy 10 - - - -
25/04:30pm 16.5 W 14 19 1020.6 - 0.0 - Partly cloudy 10 - - - -
25/04:00pm 14.9 W 13 18 1020.7 - 0.0 - Partly cloudy 10 - - - -
25/03:30pm 14.7 W 13 17 1020.8 - 0.0 - Partly cloudy 10 - - - -
25/03:11pm 15.5 SW 20 24 1020.8 - 0.0 - Partly cloudy 10 - - - -
25/03:00pm 15.8 W 17 23 1020.8 - 0.0 - Partly cloudy 10 - - - -
25/02:30pm 15.6 W 17 23 1020.7 - 0.0 - - 10 - - - -
25/02:00pm 15.6 W 16 24 1020.8 - 0.0 - Partly cloudy 10 - - - -
25/01:30pm 16.1 W 18 24 1020.8 - 0.0 - Partly cloudy 10 - - - -
25/01:00pm 15.4 W 16 23 1020.8 - 0.0 - Partly cloudy 10 - - - -
25/12:30pm 16.0 W 15 22 1020.8 - 0.0 - Partly cloudy 10 - - - -
25/12:00pm 15.4 WSW 17 23 1020.8 - 0.0 - Partly cloudy 10 - - - -
25/11:30am 14.4 W 16 20 1020.7 - 0.0 - Cloudy 10 - - - -
25/11:00am 15.3 WSW 14 20 1020.6 - 0.0 - Partly cloudy 10 - - - -
25/10:30am 14.9 W 17 24 1020.3 - 0.0 - Cloudy 10 - - - -
25/10:00am 14.5 W 15 21 1020.2 - 0.0 - Cloudy 10 - - - -
25/09:30am 14.3 W 18 24 1019.9 - 0.0 - Partly cloudy 10 - - - -
25/09:00am 14.6 WSW 17 23 1019.4 - 0.0 - Partly cloudy 10 - - - -
25/08:30am 14.1 WSW 15 22 1019.1 - 4.0 - Cloudy 10 - - - -
25/08:00am 13.7 WSW 15 19 1018.8 - 4.0 - Partly cloudy 10 - - - -
25/07:30am 13.5 WSW 13 20 1018.5 - 4.0 - Partly cloudy 10 - - - -
25/07:00am 13.0 WSW 12 17 1018.0 - 4.0 - Cloudy 10 - - - -
25/06:30am 12.6 WSW 14 20 1017.9 - 4.0 - Cloudy 10 - - - -
25/06:00am 12.5 WSW 16 22 1017.3 - 4.0 - Partly cloudy 10 - - - -

Other Formats:

Comma delimited format used in spreadsheet applications
http://www.bom.gov.au/fwo/IDS60701/IDS60701.94828.axf

JavaScript Object Notation format (JSON) in row-major order
http://www.bom.gov.au/fwo/IDS60701/IDS60701.94828.json